sensor_id;sensor_type;location;lat;lon;timestamp;temperature;humidity
25825;DHT22;13658;44.534;18.694;2023-04-25T00:00:00;12.70;99.90
25825;DHT22;13658;44.534;18.694;2023-04-25T00:02:26;12.50;99.90
25825;DHT22;13658;44.534;18.694;2023-04-25T00:04:56;12.40;99.90
25825;DHT22;13658;44.534;18.694;2023-04-25T00:07:25;12.40;99.90
25825;DHT22;13658;44.534;18.694;2023-04-25T00:09:51;12.30;99.90
25825;DHT22;13658;44.534;18.694;2023-04-25T00:12:17;12.30;99.90
25825;DHT22;13658;44.534;18.694;2023-04-25T00:14:43;12.20;99.90
25825;DHT22;13658;44.534;18.694;2023-04-25T00:17:09;12.20;99.90
25825;DHT22;13658;44.534;18.694;2023-04-25T00:19:37;12.30;99.90
25825;DHT22;13658;44.534;18.694;2023-04-25T00:22:03;12.40;99.90
25825;DHT22;13658;44.534;18.694;2023-04-25T00:24:31;12.40;99.90
25825;DHT22;13658;44.534;18.694;2023-04-25T00:26:57;12.40;99.90
25825;DHT22;13658;44.534;18.694;2023-04-25T00:29:23;12.40;99.90
25825;DHT22;13658;44.534;18.694;2023-04-25T00:31:49;12.50;99.90
25825;DHT22;13658;44.534;18.694;2023-04-25T00:34:15;12.50;99.90
25825;DHT22;13658;44.534;18.694;2023-04-25T00:36:41;12.40;99.90
25825;DHT22;13658;44.534;18.694;2023-04-25T00:39:07;12.50;99.90
25825;DHT22;13658;44.534;18.694;2023-04-25T00:41:33;12.50;99.90
25825;DHT22;13658;44.534;18.694;2023-04-25T00:44:00;12.60;99.90
25825;DHT22;13658;44.534;18.694;2023-04-25T00:46:27;12.50;99.90
25825;DHT22;13658;44.534;18.694;2023-04-25T00:48:52;12.60;99.90
25825;DHT22;13658;44.534;18.694;2023-04-25T00:51:22;12.60;99.90
25825;DHT22;13658;44.534;18.694;2023-04-25T00:53:49;12.60;99.90
25825;DHT22;13658;44.534;18.694;2023-04-25T00:56:16;12.50;99.90
25825;DHT22;13658;44.534;18.694;2023-04-25T00:58:42;12.50;99.90
25825;DHT22;13658;44.534;18.694;2023-04-25T01:01:09;12.50;99.90
25825;DHT22;13658;44.534;18.694;2023-04-25T01:03:38;12.50;99.90
25825;DHT22;13658;44.534;18.694;2023-04-25T01:06:10;12.50;99.90
25825;DHT22;13658;44.534;18.694;2023-04-25T01:08:38;12.40;99.90
25825;DHT22;13658;44.534;18.694;2023-04-25T01:11:04;12.40;99.90
25825;DHT22;13658;44.534;18.694;2023-04-25T01:13:32;12.50;99.90
25825;DHT22;13658;44.534;18.694;2023-04-25T01:15:59;12.50;99.90
25825;DHT22;13658;44.534;18.694;2023-04-25T01:18:25;12.30;99.90
25825;DHT22;13658;44.534;18.694;2023-04-25T01:20:52;12.40;99.90
25825;DHT22;13658;44.534;18.694;2023-04-25T01:23:21;12.40;99.90
25825;DHT22;13658;44.534;18.694;2023-04-25T01:25:48;12.40;99.90
25825;DHT22;13658;44.534;18.694;2023-04-25T01:28:15;12.30;99.90
25825;DHT22;13658;44.534;18.694;2023-04-25T01:30:41;12.30;99.90
25825;DHT22;13658;44.534;18.694;2023-04-25T01:33:08;12.30;99.90
25825;DHT22;13658;44.534;18.694;2023-04-25T01:35:34;12.40;99.90
25825;DHT22;13658;44.534;18.694;2023-04-25T01:38:01;12.30;99.90
25825;DHT22;13658;44.534;18.694;2023-04-25T01:40:27;12.40;99.90
25825;DHT22;13658;44.534;18.694;2023-04-25T01:42:54;12.30;99.90
25825;DHT22;13658;44.534;18.694;2023-04-25T01:45:21;12.40;99.90
25825;DHT22;13658;44.534;18.694;2023-04-25T01:47:48;12.40;99.90
25825;DHT22;13658;44.534;18.694;2023-04-25T01:50:17;12.30;99.90
25825;DHT22;13658;44.534;18.694;2023-04-25T01:52:43;12.40;99.90
25825;DHT22;13658;44.534;18.694;2023-04-25T01:55:11;12.40;99.90
25825;DHT22;13658;44.534;18.694;2023-04-25T01:57:42;12.30;99.90
25825;DHT22;13658;44.534;18.694;2023-04-25T02:00:08;12.30;99.90
25825;DHT22;13658;44.534;18.694;2023-04-25T02:02:40;12.20;99.90
25825;DHT22;13658;44.534;18.694;2023-04-25T02:05:22;12.20;99.90
25825;DHT22;13658;44.534;18.694;2023-04-25T02:07:48;12.30;99.90
25825;DHT22;13658;44.534;18.694;2023-04-25T02:10:14;12.10;99.90
25825;DHT22;13658;44.534;18.694;2023-04-25T02:13:01;12.00;99.90
25825;DHT22;13658;44.534;18.694;2023-04-25T02:15:53;11.90;99.90
25825;DHT22;13658;44.534;18.694;2023-04-25T02:18:19;11.80;99.90
25825;DHT22;13658;44.534;18.694;2023-04-25T02:20:47;11.60;99.90
25825;DHT22;13658;44.534;18.694;2023-04-25T02:23:14;11.60;99.90
25825;DHT22;13658;44.534;18.694;2023-04-25T02:25:44;11.50;99.90
25825;DHT22;13658;44.534;18.694;2023-04-25T02:28:10;11.50;99.90
25825;DHT22;13658;44.534;18.694;2023-04-25T02:30:37;11.40;99.90
25825;DHT22;13658;44.534;18.694;2023-04-25T02:33:04;11.40;99.90
25825;DHT22;13658;44.534;18.694;2023-04-25T02:35:30;11.40;99.90
25825;DHT22;13658;44.534;18.694;2023-04-25T02:37:56;11.40;99.90
25825;DHT22;13658;44.534;18.694;2023-04-25T02:40:24;11.40;99.90
25825;DHT22;13658;44.534;18.694;2023-04-25T02:42:53;11.40;99.90
25825;DHT22;13658;44.534;18.694;2023-04-25T02:45:19;11.30;99.90
25825;DHT22;13658;44.534;18.694;2023-04-25T02:47:45;11.30;99.90
25825;DHT22;13658;44.534;18.694;2023-04-25T02:50:11;11.20;99.90
25825;DHT22;13658;44.534;18.694;2023-04-25T02:52:39;11.20;99.90
25825;DHT22;13658;44.534;18.694;2023-04-25T02:55:13;11.20;99.90
25825;DHT22;13658;44.534;18.694;2023-04-25T02:57:39;11.20;99.90
25825;DHT22;13658;44.534;18.694;2023-04-25T03:00:07;11.20;99.90
25825;DHT22;13658;44.534;18.694;2023-04-25T03:02:33;11.10;99.90
25825;DHT22;13658;44.534;18.694;2023-04-25T03:04:59;11.20;99.90
25825;DHT22;13658;44.534;18.694;2023-04-25T03:07:26;11.00;99.90
25825;DHT22;13658;44.534;18.694;2023-04-25T03:09:52;11.00;99.90
25825;DHT22;13658;44.534;18.694;2023-04-25T03:12:18;10.90;99.90
25825;DHT22;13658;44.534;18.694;2023-04-25T03:14:44;10.90;99.90
25825;DHT22;13658;44.534;18.694;2023-04-25T03:17:10;10.90;99.90
25825;DHT22;13658;44.534;18.694;2023-04-25T03:19:36;10.90;99.90
25825;DHT22;13658;44.534;18.694;2023-04-25T03:22:02;10.80;99.90
25825;DHT22;13658;44.534;18.694;2023-04-25T03:24:28;10.90;99.90
25825;DHT22;13658;44.534;18.694;2023-04-25T03:26:54;10.90;99.90
25825;DHT22;13658;44.534;18.694;2023-04-25T03:29:20;10.80;99.90
25825;DHT22;13658;44.534;18.694;2023-04-25T03:31:51;10.80;99.90
25825;DHT22;13658;44.534;18.694;2023-04-25T03:34:18;10.80;99.90
25825;DHT22;13658;44.534;18.694;2023-04-25T03:36:48;10.70;99.90
25825;DHT22;13658;44.534;18.694;2023-04-25T03:39:14;10.70;99.90
25825;DHT22;13658;44.534;18.694;2023-04-25T03:41:45;10.60;99.90
25825;DHT22;13658;44.534;18.694;2023-04-25T03:44:14;10.50;99.90
25825;DHT22;13658;44.534;18.694;2023-04-25T03:46:40;10.60;99.90
25825;DHT22;13658;44.534;18.694;2023-04-25T03:49:06;10.60;99.90
25825;DHT22;13658;44.534;18.694;2023-04-25T03:51:52;10.60;99.90
25825;DHT22;13658;44.534;18.694;2023-04-25T03:54:18;10.50;99.90
25825;DHT22;13658;44.534;18.694;2023-04-25T03:56:57;10.60;99.90
25825;DHT22;13658;44.534;18.694;2023-04-25T03:59:27;10.50;99.90
25825;DHT22;13658;44.534;18.694;2023-04-25T04:01:52;10.40;99.90
25825;DHT22;13658;44.534;18.694;2023-04-25T04:04:19;10.40;99.90
25825;DHT22;13658;44.534;18.694;2023-04-25T04:06:45;10.40;99.90
25825;DHT22;13658;44.534;18.694;2023-04-25T04:09:20;10.40;99.90
25825;DHT22;13658;44.534;18.694;2023-04-25T04:11:46;10.30;99.90
25825;DHT22;13658;44.534;18.694;2023-04-25T04:14:13;10.40;99.90
25825;DHT22;13658;44.534;18.694;2023-04-25T04:16:43;10.40;99.90
25825;DHT22;13658;44.534;18.694;2023-04-25T04:19:10;10.40;99.90
25825;DHT22;13658;44.534;18.694;2023-04-25T04:21:39;10.40;99.90
25825;DHT22;13658;44.534;18.694;2023-04-25T04:24:05;10.40;99.90
25825;DHT22;13658;44.534;18.694;2023-04-25T04:26:42;10.40;99.90
25825;DHT22;13658;44.534;18.694;2023-04-25T04:29:36;10.40;99.90
25825;DHT22;13658;44.534;18.694;2023-04-25T04:32:25;10.40;99.90
25825;DHT22;13658;44.534;18.694;2023-04-25T04:34:53;10.40;99.90
25825;DHT22;13658;44.534;18.694;2023-04-25T04:37:22;10.40;99.90
25825;DHT22;13658;44.534;18.694;2023-04-25T04:39:48;10.50;99.90
25825;DHT22;13658;44.534;18.694;2023-04-25T04:42:23;10.50;99.90
25825;DHT22;13658;44.534;18.694;2023-04-25T04:45:00;10.50;99.90
25825;DHT22;13658;44.534;18.694;2023-04-25T04:47:43;10.50;99.90
25825;DHT22;13658;44.534;18.694;2023-04-25T04:50:16;10.60;99.90
25825;DHT22;13658;44.534;18.694;2023-04-25T04:53:19;10.60;99.90
25825;DHT22;13658;44.534;18.694;2023-04-25T04:56:06;10.60;99.90
25825;DHT22;13658;44.534;18.694;2023-04-25T04:58:48;10.60;99.90
25825;DHT22;13658;44.534;18.694;2023-04-25T05:01:38;10.60;99.90
25825;DHT22;13658;44.534;18.694;2023-04-25T05:04:15;10.70;99.90
25825;DHT22;13658;44.534;18.694;2023-04-25T05:07:11;10.80;99.90
25825;DHT22;13658;44.534;18.694;2023-04-25T05:09:57;10.70;99.90
25825;DHT22;13658;44.534;18.694;2023-04-25T05:12:42;10.80;99.90
25825;DHT22;13658;44.534;18.694;2023-04-25T05:15:17;10.90;99.90
25825;DHT22;13658;44.534;18.694;2023-04-25T05:18:06;10.70;99.90
25825;DHT22;13658;44.534;18.694;2023-04-25T05:20:46;10.80;99.90
25825;DHT22;13658;44.534;18.694;2023-04-25T05:23:35;10.80;99.90
25825;DHT22;13658;44.534;18.694;2023-04-25T05:30:04;10.90;99.90
25825;DHT22;13658;44.534;18.694;2023-04-25T05:32:45;11.00;99.90
25825;DHT22;13658;44.534;18.694;2023-04-25T05:35:13;11.00;99.90
25825;DHT22;13658;44.534;18.694;2023-04-25T05:37:44;11.00;99.90
25825;DHT22;13658;44.534;18.694;2023-04-25T05:40:12;11.00;99.90
25825;DHT22;13658;44.534;18.694;2023-04-25T05:42:51;11.20;99.90
25825;DHT22;13658;44.534;18.694;2023-04-25T05:45:36;11.30;99.90
25825;DHT22;13658;44.534;18.694;2023-04-25T05:48:28;11.30;99.90
25825;DHT22;13658;44.534;18.694;2023-04-25T05:51:02;11.50;99.90
25825;DHT22;13658;44.534;18.694;2023-04-25T05:53:37;11.50;99.90
25825;DHT22;13658;44.534;18.694;2023-04-25T05:56:03;11.70;99.90
25825;DHT22;13658;44.534;18.694;2023-04-25T05:58:29;11.70;99.90
25825;DHT22;13658;44.534;18.694;2023-04-25T06:00:57;11.80;99.90
25825;DHT22;13658;44.534;18.694;2023-04-25T06:03:23;12.00;99.90
25825;DHT22;13658;44.534;18.694;2023-04-25T06:05:50;12.00;99.90
25825;DHT22;13658;44.534;18.694;2023-04-25T06:08:16;12.00;99.90
25825;DHT22;13658;44.534;18.694;2023-04-25T06:10:42;12.20;99.90
25825;DHT22;13658;44.534;18.694;2023-04-25T06:13:08;12.30;99.90
25825;DHT22;13658;44.534;18.694;2023-04-25T06:15:36;12.40;99.90
25825;DHT22;13658;44.534;18.694;2023-04-25T06:18:02;12.30;99.90
25825;DHT22;13658;44.534;18.694;2023-04-25T06:20:28;12.30;99.90
25825;DHT22;13658;44.534;18.694;2023-04-25T06:22:57;12.50;99.90
25825;DHT22;13658;44.534;18.694;2023-04-25T06:25:46;12.50;99.90
25825;DHT22;13658;44.534;18.694;2023-04-25T06:28:12;12.60;99.90
25825;DHT22;13658;44.534;18.694;2023-04-25T06:30:39;12.70;99.90
25825;DHT22;13658;44.534;18.694;2023-04-25T06:33:09;12.90;99.90
25825;DHT22;13658;44.534;18.694;2023-04-25T06:35:37;13.00;99.90
25825;DHT22;13658;44.534;18.694;2023-04-25T06:38:04;13.10;99.90
25825;DHT22;13658;44.534;18.694;2023-04-25T06:40:31;13.20;99.90
25825;DHT22;13658;44.534;18.694;2023-04-25T06:42:57;13.10;99.90
25825;DHT22;13658;44.534;18.694;2023-04-25T06:45:56;13.10;99.90
25825;DHT22;13658;44.534;18.694;2023-04-25T06:48:24;13.20;99.90
25825;DHT22;13658;44.534;18.694;2023-04-25T06:50:52;13.20;99.90
25825;DHT22;13658;44.534;18.694;2023-04-25T06:53:18;13.30;99.90
25825;DHT22;13658;44.534;18.694;2023-04-25T06:55:49;13.30;99.90
25825;DHT22;13658;44.534;18.694;2023-04-25T06:58:20;13.30;99.90
25825;DHT22;13658;44.534;18.694;2023-04-25T07:01:12;13.30;99.90
25825;DHT22;13658;44.534;18.694;2023-04-25T07:03:38;13.40;99.90
25825;DHT22;13658;44.534;18.694;2023-04-25T07:06:11;13.50;99.90
25825;DHT22;13658;44.534;18.694;2023-04-25T07:08:37;13.80;99.90
25825;DHT22;13658;44.534;18.694;2023-04-25T07:11:03;14.00;99.90
25825;DHT22;13658;44.534;18.694;2023-04-25T07:13:29;14.40;99.90
25825;DHT22;13658;44.534;18.694;2023-04-25T07:15:55;14.70;99.90
25825;DHT22;13658;44.534;18.694;2023-04-25T07:18:22;14.70;99.90
25825;DHT22;13658;44.534;18.694;2023-04-25T07:20:49;14.60;99.90
25825;DHT22;13658;44.534;18.694;2023-04-25T07:23:16;14.70;99.90
25825;DHT22;13658;44.534;18.694;2023-04-25T07:25:42;15.00;99.90
25825;DHT22;13658;44.534;18.694;2023-04-25T07:28:08;15.30;99.90
25825;DHT22;13658;44.534;18.694;2023-04-25T07:30:35;15.70;99.90
25825;DHT22;13658;44.534;18.694;2023-04-25T07:33:03;16.20;99.90
25825;DHT22;13658;44.534;18.694;2023-04-25T07:35:29;16.20;99.90
25825;DHT22;13658;44.534;18.694;2023-04-25T07:37:55;16.10;99.90
25825;DHT22;13658;44.534;18.694;2023-04-25T07:40:21;16.10;99.90
25825;DHT22;13658;44.534;18.694;2023-04-25T07:42:58;16.10;99.90
25825;DHT22;13658;44.534;18.694;2023-04-25T07:45:35;15.90;99.90
25825;DHT22;13658;44.534;18.694;2023-04-25T07:48:02;16.10;99.90
25825;DHT22;13658;44.534;18.694;2023-04-25T07:50:31;16.00;99.90
25825;DHT22;13658;44.534;18.694;2023-04-25T07:52:57;15.70;99.90
25825;DHT22;13658;44.534;18.694;2023-04-25T07:55:31;15.70;99.90
25825;DHT22;13658;44.534;18.694;2023-04-25T07:58:07;15.60;99.90
25825;DHT22;13658;44.534;18.694;2023-04-25T08:00:33;15.30;99.90
25825;DHT22;13658;44.534;18.694;2023-04-25T08:03:35;15.70;99.90
25825;DHT22;13658;44.534;18.694;2023-04-25T08:06:04;16.30;99.90
25825;DHT22;13658;44.534;18.694;2023-04-25T08:08:34;16.30;99.90
25825;DHT22;13658;44.534;18.694;2023-04-25T08:11:00;16.60;99.90
25825;DHT22;13658;44.534;18.694;2023-04-25T08:13:26;16.30;99.90
25825;DHT22;13658;44.534;18.694;2023-04-25T08:15:53;16.30;99.90
25825;DHT22;13658;44.534;18.694;2023-04-25T08:18:19;16.80;99.90
25825;DHT22;13658;44.534;18.694;2023-04-25T08:20:47;17.40;99.90
25825;DHT22;13658;44.534;18.694;2023-04-25T08:23:14;17.50;99.90
25825;DHT22;13658;44.534;18.694;2023-04-25T08:25:51;17.40;99.90
25825;DHT22;13658;44.534;18.694;2023-04-25T08:28:20;17.30;99.90
25825;DHT22;13658;44.534;18.694;2023-04-25T08:30:47;17.50;99.90
25825;DHT22;13658;44.534;18.694;2023-04-25T08:33:14;17.40;99.90
25825;DHT22;13658;44.534;18.694;2023-04-25T08:35:44;17.20;99.90
25825;DHT22;13658;44.534;18.694;2023-04-25T08:38:12;17.40;99.90
25825;DHT22;13658;44.534;18.694;2023-04-25T08:40:39;17.30;99.90
25825;DHT22;13658;44.534;18.694;2023-04-25T08:43:13;17.80;99.90
25825;DHT22;13658;44.534;18.694;2023-04-25T08:45:41;18.20;99.90
25825;DHT22;13658;44.534;18.694;2023-04-25T08:48:13;18.00;99.90
25825;DHT22;13658;44.534;18.694;2023-04-25T08:50:40;18.20;99.90
25825;DHT22;13658;44.534;18.694;2023-04-25T08:53:09;18.80;99.90
25825;DHT22;13658;44.534;18.694;2023-04-25T08:55:42;18.90;99.90
25825;DHT22;13658;44.534;18.694;2023-04-25T08:58:11;18.60;99.90
25825;DHT22;13658;44.534;18.694;2023-04-25T09:00:37;19.00;99.90
25825;DHT22;13658;44.534;18.694;2023-04-25T09:03:03;19.70;99.90
25825;DHT22;13658;44.534;18.694;2023-04-25T09:05:35;20.50;99.90
25825;DHT22;13658;44.534;18.694;2023-04-25T09:08:02;19.30;99.90
25825;DHT22;13658;44.534;18.694;2023-04-25T09:10:28;18.80;99.90
25825;DHT22;13658;44.534;18.694;2023-04-25T09:13:14;18.30;99.90
25825;DHT22;13658;44.534;18.694;2023-04-25T09:16:01;17.90;99.90
25825;DHT22;13658;44.534;18.694;2023-04-25T09:18:42;17.00;99.90
25825;DHT22;13658;44.534;18.694;2023-04-25T09:21:11;17.00;99.90
25825;DHT22;13658;44.534;18.694;2023-04-25T09:23:46;18.80;99.90
25825;DHT22;13658;44.534;18.694;2023-04-25T09:26:20;19.30;99.90
25825;DHT22;13658;44.534;18.694;2023-04-25T09:28:46;19.30;99.90
25825;DHT22;13658;44.534;18.694;2023-04-25T09:31:22;18.90;99.90
25825;DHT22;13658;44.534;18.694;2023-04-25T09:34:01;18.40;99.90
25825;DHT22;13658;44.534;18.694;2023-04-25T09:36:30;17.90;99.90
25825;DHT22;13658;44.534;18.694;2023-04-25T09:39:12;17.50;99.90
25825;DHT22;13658;44.534;18.694;2023-04-25T09:41:45;16.80;99.90
25825;DHT22;13658;44.534;18.694;2023-04-25T09:44:12;16.40;99.90
25825;DHT22;13658;44.534;18.694;2023-04-25T09:46:40;16.20;99.90
25825;DHT22;13658;44.534;18.694;2023-04-25T09:49:14;18.10;99.90
25825;DHT22;13658;44.534;18.694;2023-04-25T09:51:59;19.50;99.90
25825;DHT22;13658;44.534;18.694;2023-04-25T09:54:36;20.00;99.90
25825;DHT22;13658;44.534;18.694;2023-04-25T09:57:13;21.60;99.90
25825;DHT22;13658;44.534;18.694;2023-04-25T09:59:46;20.50;99.90
25825;DHT22;13658;44.534;18.694;2023-04-25T10:02:15;20.10;99.90
25825;DHT22;13658;44.534;18.694;2023-04-25T10:04:45;19.90;99.90
25825;DHT22;13658;44.534;18.694;2023-04-25T10:07:26;19.40;99.90
25825;DHT22;13658;44.534;18.694;2023-04-25T10:10:00;19.20;99.90
25825;DHT22;13658;44.534;18.694;2023-04-25T10:12:29;18.90;99.90
25825;DHT22;13658;44.534;18.694;2023-04-25T10:14:55;18.40;99.90
25825;DHT22;13658;44.534;18.694;2023-04-25T10:17:22;17.90;99.90
25825;DHT22;13658;44.534;18.694;2023-04-25T10:19:49;17.90;99.90
25825;DHT22;13658;44.534;18.694;2023-04-25T10:25:03;18.20;99.90
25825;DHT22;13658;44.534;18.694;2023-04-25T10:27:30;18.20;99.90
25825;DHT22;13658;44.534;18.694;2023-04-25T10:30:05;18.60;99.90
25825;DHT22;13658;44.534;18.694;2023-04-25T10:32:32;19.70;99.90
25825;DHT22;13658;44.534;18.694;2023-04-25T10:35:13;20.90;99.90
25825;DHT22;13658;44.534;18.694;2023-04-25T10:37:57;21.50;99.90
25825;DHT22;13658;44.534;18.694;2023-04-25T10:40:24;22.40;99.90
25825;DHT22;13658;44.534;18.694;2023-04-25T10:42:54;22.50;99.90
25825;DHT22;13658;44.534;18.694;2023-04-25T10:45:21;22.70;99.90
25825;DHT22;13658;44.534;18.694;2023-04-25T10:47:48;22.50;99.90
25825;DHT22;13658;44.534;18.694;2023-04-25T10:50:17;21.90;99.90
25825;DHT22;13658;44.534;18.694;2023-04-25T10:52:43;21.00;99.90
25825;DHT22;13658;44.534;18.694;2023-04-25T10:55:12;19.70;99.90
25825;DHT22;13658;44.534;18.694;2023-04-25T10:57:43;19.10;99.90
25825;DHT22;13658;44.534;18.694;2023-04-25T11:00:15;19.00;99.90
25825;DHT22;13658;44.534;18.694;2023-04-25T11:02:47;18.70;99.90
25825;DHT22;13658;44.534;18.694;2023-04-25T11:05:40;18.40;99.90
25825;DHT22;13658;44.534;18.694;2023-04-25T11:08:11;18.10;99.90
25825;DHT22;13658;44.534;18.694;2023-04-25T11:10:40;17.70;99.90
25825;DHT22;13658;44.534;18.694;2023-04-25T11:13:06;18.00;99.90
25825;DHT22;13658;44.534;18.694;2023-04-25T11:15:32;18.10;99.90
25825;DHT22;13658;44.534;18.694;2023-04-25T11:17:58;17.90;99.90
25825;DHT22;13658;44.534;18.694;2023-04-25T11:20:25;17.90;99.90
25825;DHT22;13658;44.534;18.694;2023-04-25T11:22:52;17.90;99.90
25825;DHT22;13658;44.534;18.694;2023-04-25T11:25:18;18.20;99.90
25825;DHT22;13658;44.534;18.694;2023-04-25T11:27:50;18.40;99.90
25825;DHT22;13658;44.534;18.694;2023-04-25T11:30:17;18.60;99.90
25825;DHT22;13658;44.534;18.694;2023-04-25T11:32:43;18.40;99.90
25825;DHT22;13658;44.534;18.694;2023-04-25T11:35:10;18.70;99.90
25825;DHT22;13658;44.534;18.694;2023-04-25T11:37:38;19.10;99.90
25825;DHT22;13658;44.534;18.694;2023-04-25T11:40:05;19.30;99.90
25825;DHT22;13658;44.534;18.694;2023-04-25T11:42:39;18.90;99.90
25825;DHT22;13658;44.534;18.694;2023-04-25T11:45:06;18.90;99.90
25825;DHT22;13658;44.534;18.694;2023-04-25T11:47:33;18.80;99.90
25825;DHT22;13658;44.534;18.694;2023-04-25T11:50:01;18.60;99.90
25825;DHT22;13658;44.534;18.694;2023-04-25T11:52:36;18.30;99.90
25825;DHT22;13658;44.534;18.694;2023-04-25T11:55:14;18.20;99.90
25825;DHT22;13658;44.534;18.694;2023-04-25T11:57:42;18.00;99.90
25825;DHT22;13658;44.534;18.694;2023-04-25T12:00:17;17.90;99.90
25825;DHT22;13658;44.534;18.694;2023-04-25T12:02:47;17.90;99.90
25825;DHT22;13658;44.534;18.694;2023-04-25T12:05:16;17.90;99.90
25825;DHT22;13658;44.534;18.694;2023-04-25T12:07:42;17.80;99.90
25825;DHT22;13658;44.534;18.694;2023-04-25T12:10:13;17.90;99.90
25825;DHT22;13658;44.534;18.694;2023-04-25T12:12:47;17.90;99.90
25825;DHT22;13658;44.534;18.694;2023-04-25T12:17:42;17.70;99.90
25825;DHT22;13658;44.534;18.694;2023-04-25T12:20:15;17.50;99.90
25825;DHT22;13658;44.534;18.694;2023-04-25T12:22:46;17.40;99.90
25825;DHT22;13658;44.534;18.694;2023-04-25T12:25:13;17.40;99.90
25825;DHT22;13658;44.534;18.694;2023-04-25T12:27:40;17.40;99.90
25825;DHT22;13658;44.534;18.694;2023-04-25T12:30:09;17.30;99.90
25825;DHT22;13658;44.534;18.694;2023-04-25T12:32:36;17.50;99.90
25825;DHT22;13658;44.534;18.694;2023-04-25T12:35:05;17.80;99.90
25825;DHT22;13658;44.534;18.694;2023-04-25T12:37:32;17.90;99.90
25825;DHT22;13658;44.534;18.694;2023-04-25T12:39:58;18.20;99.90
25825;DHT22;13658;44.534;18.694;2023-04-25T12:42:24;18.50;99.90
25825;DHT22;13658;44.534;18.694;2023-04-25T12:44:49;18.20;99.90
25825;DHT22;13658;44.534;18.694;2023-04-25T12:47:16;17.70;99.90
25825;DHT22;13658;44.534;18.694;2023-04-25T12:49:41;17.90;99.90
25825;DHT22;13658;44.534;18.694;2023-04-25T12:52:07;18.00;99.90
25825;DHT22;13658;44.534;18.694;2023-04-25T12:54:33;18.10;99.90
25825;DHT22;13658;44.534;18.694;2023-04-25T12:56:59;18.30;99.90
25825;DHT22;13658;44.534;18.694;2023-04-25T12:59:27;18.40;99.90
25825;DHT22;13658;44.534;18.694;2023-04-25T13:01:53;18.30;99.90
25825;DHT22;13658;44.534;18.694;2023-04-25T13:04:19;18.20;99.90
25825;DHT22;13658;44.534;18.694;2023-04-25T13:06:46;18.20;99.90
25825;DHT22;13658;44.534;18.694;2023-04-25T13:09:12;18.50;99.90
25825;DHT22;13658;44.534;18.694;2023-04-25T13:11:38;18.60;99.90
25825;DHT22;13658;44.534;18.694;2023-04-25T13:14:04;18.70;99.90
25825;DHT22;13658;44.534;18.694;2023-04-25T13:16:30;18.90;99.90
25825;DHT22;13658;44.534;18.694;2023-04-25T13:18:57;18.80;99.90
25825;DHT22;13658;44.534;18.694;2023-04-25T13:21:23;18.70;99.90
25825;DHT22;13658;44.534;18.694;2023-04-25T13:23:49;18.70;99.90
25825;DHT22;13658;44.534;18.694;2023-04-25T13:26:16;18.80;99.90
25825;DHT22;13658;44.534;18.694;2023-04-25T13:28:42;18.80;99.90
25825;DHT22;13658;44.534;18.694;2023-04-25T13:31:07;19.20;99.90
25825;DHT22;13658;44.534;18.694;2023-04-25T13:33:33;18.80;99.90
25825;DHT22;13658;44.534;18.694;2023-04-25T13:36:00;19.00;99.90
25825;DHT22;13658;44.534;18.694;2023-04-25T13:38:27;19.10;99.90
25825;DHT22;13658;44.534;18.694;2023-04-25T13:40:53;18.60;99.90
25825;DHT22;13658;44.534;18.694;2023-04-25T13:43:20;18.50;99.90
25825;DHT22;13658;44.534;18.694;2023-04-25T13:45:50;18.50;99.90
25825;DHT22;13658;44.534;18.694;2023-04-25T13:48:18;18.60;99.90
25825;DHT22;13658;44.534;18.694;2023-04-25T13:50:44;18.60;99.90
25825;DHT22;13658;44.534;18.694;2023-04-25T13:53:10;18.70;99.90
25825;DHT22;13658;44.534;18.694;2023-04-25T13:55:37;18.60;99.90
25825;DHT22;13658;44.534;18.694;2023-04-25T13:58:04;18.50;99.90
25825;DHT22;13658;44.534;18.694;2023-04-25T14:00:38;18.40;99.90
25825;DHT22;13658;44.534;18.694;2023-04-25T14:03:04;18.30;99.90
25825;DHT22;13658;44.534;18.694;2023-04-25T14:05:33;18.40;99.90
25825;DHT22;13658;44.534;18.694;2023-04-25T14:08:05;18.20;99.90
25825;DHT22;13658;44.534;18.694;2023-04-25T14:10:31;18.20;99.90
25825;DHT22;13658;44.534;18.694;2023-04-25T14:12:57;18.10;99.90
25825;DHT22;13658;44.534;18.694;2023-04-25T14:15:24;18.10;99.90
25825;DHT22;13658;44.534;18.694;2023-04-25T14:17:51;18.10;99.90
25825;DHT22;13658;44.534;18.694;2023-04-25T14:20:17;17.90;99.90
25825;DHT22;13658;44.534;18.694;2023-04-25T14:22:46;17.90;99.90
25825;DHT22;13658;44.534;18.694;2023-04-25T14:25:12;17.90;99.90
25825;DHT22;13658;44.534;18.694;2023-04-25T14:27:38;17.90;99.90
25825;DHT22;13658;44.534;18.694;2023-04-25T14:30:04;18.00;99.90
25825;DHT22;13658;44.534;18.694;2023-04-25T14:32:31;17.90;99.90
25825;DHT22;13658;44.534;18.694;2023-04-25T14:34:57;17.70;99.90
25825;DHT22;13658;44.534;18.694;2023-04-25T14:37:23;17.80;99.90
25825;DHT22;13658;44.534;18.694;2023-04-25T14:39:49;17.70;99.90
25825;DHT22;13658;44.534;18.694;2023-04-25T14:42:15;17.70;99.90
25825;DHT22;13658;44.534;18.694;2023-04-25T14:44:41;17.60;99.90
25825;DHT22;13658;44.534;18.694;2023-04-25T14:47:07;17.50;99.90
25825;DHT22;13658;44.534;18.694;2023-04-25T14:49:33;17.60;99.90
25825;DHT22;13658;44.534;18.694;2023-04-25T14:51:59;17.50;99.90
25825;DHT22;13658;44.534;18.694;2023-04-25T14:54:26;17.50;99.90
25825;DHT22;13658;44.534;18.694;2023-04-25T14:56:52;17.60;99.90
25825;DHT22;13658;44.534;18.694;2023-04-25T14:59:18;17.70;99.90
25825;DHT22;13658;44.534;18.694;2023-04-25T15:01:46;17.60;99.90
25825;DHT22;13658;44.534;18.694;2023-04-25T15:04:12;17.70;99.90
25825;DHT22;13658;44.534;18.694;2023-04-25T15:06:38;17.70;99.90
25825;DHT22;13658;44.534;18.694;2023-04-25T15:09:04;17.80;99.90
25825;DHT22;13658;44.534;18.694;2023-04-25T15:11:30;17.60;99.90
25825;DHT22;13658;44.534;18.694;2023-04-25T15:13:56;17.50;99.90
25825;DHT22;13658;44.534;18.694;2023-04-25T15:16:22;17.40;99.90
25825;DHT22;13658;44.534;18.694;2023-04-25T15:18:48;17.30;99.90
25825;DHT22;13658;44.534;18.694;2023-04-25T15:21:15;17.20;99.90
25825;DHT22;13658;44.534;18.694;2023-04-25T15:23:41;17.20;99.90
25825;DHT22;13658;44.534;18.694;2023-04-25T15:26:07;17.20;99.90
25825;DHT22;13658;44.534;18.694;2023-04-25T15:28:33;17.20;99.90
25825;DHT22;13658;44.534;18.694;2023-04-25T15:30:59;17.20;99.90
25825;DHT22;13658;44.534;18.694;2023-04-25T15:33:25;17.10;99.90
25825;DHT22;13658;44.534;18.694;2023-04-25T15:35:51;17.10;99.90
25825;DHT22;13658;44.534;18.694;2023-04-25T15:38:18;17.10;99.90